Terminal Aerodrome Forecast
Issued by NWS

Home | Current Version | Previous Version | Text Only | Print | Product List | Glossary On
Versions: 1 2 3 4 5 6 7 8 9 10 11 12 13 14 15
000
FTUS42 KFFC 232322
TAFPDK
TAF
KPDK 232322Z 2400/2424 VRB03KT P6SM SCT060 SCT120 BKN250
     FM240900 VRB03KT P6SM SCT012 SCT120
     FM241500 12005KT P6SM SCT040
     FM242000 09005KT P6SM VCSH SCT050=

USA.gov is the U.S. government's official web portal to all federal, state and local government web resources and services.